Time;durP1;ratioP1;P1;durP2;ratioP2;P2;SDS_P1;SDS_P2;PMS_P1;PMS_P2;Temp;Humidity;BMP_temperature;BMP_pressure;BME280_temperature;BME280_humidity;BME280_pressure;Samples;Min_cycle;Max_cycle;Signal;HPM_P1;HPM_P2
2022/01/04 00:01:53;;;;;;;5.03;1.52;;;;;;;8.48;71.28;95493.47;5050009;28;20045;-77
2022/01/04 00:04:20;;;;;;;7.07;1.40;;;;;;;8.43;71.74;95495.56;5050022;28;20049;-78
2022/01/04 00:06:47;;;;;;;3.88;1.38;;;;;;;8.36;72.56;95487.94;5050626;28;20053;-76
2022/01/04 00:09:14;;;;;;;4.53;1.50;;;;;;;8.29;72.98;95484.88;5050019;28;20057;-78
2022/01/04 00:11:58;;;;;;;3.95;1.30;;;;;;;8.23;73.60;95480.75;5049785;28;20063;-78
2022/01/04 00:14:25;;;;;;;4.05;1.67;;;;;;;8.16;74.45;95481.25;5048567;28;20071;-78
2022/01/04 00:16:55;;;;;;;3.17;1.40;;;;;;;8.10;74.31;95487.97;5050176;28;20049;-80
2022/01/04 00:19:23;;;;;;;3.05;1.50;;;;;;;8.02;75.11;95477.94;5048539;28;20053;-79
2022/01/04 00:21:49;;;;;;;2.55;1.20;;;;;;;7.96;75.35;95482.72;5049891;28;20053;-80
2022/01/04 00:24:16;;;;;;;4.30;1.48;;;;;;;7.89;75.68;95482.44;5049959;28;20077;-78
2022/01/04 00:26:42;;;;;;;3.28;1.60;;;;;;;7.82;76.70;95490.25;5047640;28;20053;-77
2022/01/04 00:29:09;;;;;;;5.20;1.17;;;;;;;7.75;77.15;95471.75;5048358;28;20053;-79
2022/01/04 00:31:35;;;;;;;4.82;1.30;;;;;;;7.71;77.66;95464.59;5048339;28;20060;-77
2022/01/04 00:34:02;;;;;;;6.45;1.63;;;;;;;7.68;78.19;95465.25;5049773;28;20057;-77
2022/01/04 00:36:30;;;;;;;3.50;1.35;;;;;;;7.67;78.73;95450.88;5049883;28;20048;-78
2022/01/04 00:38:56;;;;;;;2.08;1.05;;;;;;;7.65;79.41;95442.28;5050047;28;20057;-78
2022/01/04 00:41:23;;;;;;;2.30;1.02;;;;;;;7.63;79.79;95449.16;5048826;28;20045;-77
2022/01/04 00:43:49;;;;;;;5.05;1.20;;;;;;;7.62;80.06;95444.84;5048587;28;20064;-77
2022/01/04 00:46:17;;;;;;;2.78;1.33;;;;;;;7.61;79.79;95429.69;5049484;28;20064;-77
2022/01/04 00:51:29;;;;;;;2.80;0.93;;;;;;;7.59;79.35;95428.13;5049321;28;20048;-77
2022/01/04 00:53:56;;;;;;;3.40;0.90;;;;;;;7.65;76.62;95420.63;5049501;28;20045;-81
2022/01/04 00:56:23;;;;;;;3.83;0.95;;;;;;;7.72;75.57;95417.41;5049090;28;20049;-80
2022/01/04 00:58:49;;;;;;;2.58;0.75;;;;;;;7.75;75.81;95419.47;5049472;28;20774;-80
2022/01/04 01:01:16;;;;;;;2.13;0.90;;;;;;;7.74;76.22;95407.84;5048322;28;20503;-80
2022/01/04 01:03:42;;;;;;;2.30;0.90;;;;;;;7.82;74.67;95400.81;5049354;28;20124;-78
2022/01/04 01:06:09;;;;;;;2.08;0.75;;;;;;;7.84;74.77;95398.59;5048929;28;20072;-79
2022/01/04 01:08:37;;;;;;;2.05;0.70;;;;;;;7.90;74.03;95391.88;5048901;28;20056;-77
2022/01/04 01:11:05;;;;;;;1.70;0.70;;;;;;;7.94;74.31;95398.22;5048091;28;20057;-79
2022/01/04 01:13:32;;;;;;;1.67;0.88;;;;;;;8.01;74.27;95387.66;5038366;28;20049;-80
2022/01/04 01:15:58;;;;;;;1.40;0.75;;;;;;;8.02;74.41;95388.47;5029276;28;20505;-79
2022/01/04 01:18:25;;;;;;;8.35;1.63;;;;;;;8.03;74.16;95382.72;5027589;28;20084;-79
2022/01/04 01:20:52;;;;;;;2.58;0.80;;;;;;;8.15;73.51;95371.19;5028831;28;20068;-78
2022/01/04 01:23:19;;;;;;;1.23;0.60;;;;;;;8.22;73.83;95376.09;5028444;28;20459;-79
2022/01/04 01:25:48;;;;;;;1.50;0.60;;;;;;;8.25;73.71;95375.47;5028815;28;20050;-80
2022/01/04 01:28:15;;;;;;;2.97;0.80;;;;;;;8.32;73.62;95371.09;5028476;28;20064;-79
2022/01/04 01:30:43;;;;;;;1.60;0.50;;;;;;;8.38;73.54;95368.25;5028258;28;20050;-78
2022/01/04 01:33:10;;;;;;;1.48;0.60;;;;;;;8.44;73.03;95370.44;5028396;28;20488;-80
2022/01/04 01:35:37;;;;;;;1.85;0.75;;;;;;;8.46;73.29;95368.19;5029170;28;20055;-79
2022/01/04 01:38:04;;;;;;;2.67;0.80;;;;;;;8.47;73.88;95363.56;5028179;28;20050;-80
2022/01/04 01:40:32;;;;;;;1.20;0.50;;;;;;;8.46;73.80;95356.56;5028379;28;20053;-79
2022/01/04 01:42:59;;;;;;;1.30;0.50;;;;;;;8.46;73.93;95360.06;5032887;28;20056;-80
2022/01/04 01:45:26;;;;;;;1.85;0.77;;;;;;;8.47;73.97;95356.22;5048196;28;20063;-79
2022/01/04 01:47:53;;;;;;;1.85;0.70;;;;;;;8.51;73.70;95354.44;5048589;28;20048;-81
2022/01/04 01:50:21;;;;;;;1.65;0.60;;;;;;;8.51;73.95;95349.00;5047823;28;20057;-80
2022/01/04 01:52:50;;;;;;;3.35;0.60;;;;;;;8.53;73.99;95344.03;5048311;28;20053;-79
2022/01/04 01:55:19;;;;;;;1.67;0.60;;;;;;;8.61;73.23;95339.66;5047825;28;20071;-79
2022/01/04 01:57:46;;;;;;;1.77;0.57;;;;;;;8.65;72.84;95334.38;5048734;28;20385;-79
2022/01/04 02:00:17;;;;;;;1.33;0.60;;;;;;;8.68;72.92;95318.25;5047411;28;20057;-78
2022/01/04 02:02:44;;;;;;;3.83;0.88;;;;;;;8.67;73.53;95311.22;5048607;28;20048;-79
2022/01/04 02:05:11;;;;;;;1.02;0.50;;;;;;;8.69;73.71;95313.59;5047717;28;20063;-79
2022/01/04 02:07:40;;;;;;;2.33;0.60;;;;;;;8.66;73.52;95304.19;5048311;28;20056;-78
2022/01/04 02:10:08;;;;;;;1.60;0.60;;;;;;;8.63;74.80;95300.25;5047442;28;20053;-79
2022/01/04 02:12:39;;;;;;;2.08;0.80;;;;;;;8.65;73.57;95299.91;5047418;28;20056;-81
2022/01/04 02:15:10;;;;;;;2.75;0.90;;;;;;;8.66;72.68;95290.63;5047947;28;20049;-79
2022/01/04 02:17:39;;;;;;;1.70;0.77;;;;;;;8.61;72.86;95280.78;5047951;28;20412;-79
2022/01/04 02:20:08;;;;;;;2.88;0.70;;;;;;;8.57;74.18;95287.22;5047455;28;20094;-79
2022/01/04 02:22:35;;;;;;;2.63;0.90;;;;;;;8.50;75.74;95274.16;5048047;28;20045;-78
2022/01/04 02:25:03;;;;;;;2.33;0.90;;;;;;;8.46;75.59;95272.44;5048064;28;20475;-77
2022/01/04 02:27:33;;;;;;;2.17;0.73;;;;;;;8.43;75.46;95260.31;5047713;28;20068;-79
2022/01/04 02:29:59;;;;;;;1.42;0.68;;;;;;;8.43;75.02;95259.53;5047711;28;20052;-78
2022/01/04 02:32:26;;;;;;;2.40;0.85;;;;;;;8.42;74.29;95260.66;5047296;28;20045;-79
2022/01/04 02:34:53;;;;;;;3.13;0.80;;;;;;;8.38;73.92;95249.66;5047983;28;20063;-80
2022/01/04 02:37:24;;;;;;;1.70;0.68;;;;;;;8.36;74.78;95249.22;5047722;28;20052;-78
2022/01/04 02:39:52;;;;;;;1.60;0.70;;;;;;;8.32;75.12;95238.19;5048159;28;20419;-79
2022/01/04 02:42:19;;;;;;;1.95;0.70;;;;;;;8.33;75.68;95239.00;5047656;28;20053;-78
2022/01/04 02:44:46;;;;;;;2.95;0.75;;;;;;;8.33;75.47;95225.44;5050695;28;20717;-77
2022/01/04 02:47:13;;;;;;;1.75;0.80;;;;;;;8.30;76.12;95220.66;5051535;28;20503;-78
2022/01/04 02:49:40;;;;;;;4.03;1.30;;;;;;;8.26;76.80;95211.59;5051873;28;20071;-77
2022/01/04 02:52:07;;;;;;;1.83;0.70;;;;;;;8.23;77.40;95209.53;5051260;28;20076;-79
2022/01/04 02:54:36;;;;;;;1.60;0.82;;;;;;;8.22;78.03;95207.97;5051655;28;20052;-77
2022/01/04 02:57:02;;;;;;;2.05;0.70;;;;;;;8.21;78.49;95209.09;5051361;28;20049;-77
2022/01/04 02:59:29;;;;;;;1.58;0.90;;;;;;;8.18;79.01;95202.41;5051770;28;20048;-79
2022/01/04 03:01:56;;;;;;;1.50;0.80;;;;;;;8.16;79.19;95190.31;5051187;28;20064;-77
2022/01/04 03:04:22;;;;;;;1.48;0.70;;;;;;;8.17;79.44;95189.19;5051723;28;20132;-78
2022/01/04 03:06:49;;;;;;;2.70;0.90;;;;;;;8.16;78.47;95177.53;5051451;28;20045;-77
2022/01/04 03:09:16;;;;;;;2.95;0.88;;;;;;;8.14;79.33;95163.50;5051287;28;20064;-78
2022/01/04 03:11:44;;;;;;;2.20;0.88;;;;;;;8.17;79.61;95167.47;5051044;28;20071;-77
2022/01/04 03:14:10;;;;;;;1.35;0.80;;;;;;;8.16;80.06;95161.28;5036217;28;20050;-78
2022/01/04 03:16:37;;;;;;;1.23;0.80;;;;;;;8.17;80.44;95156.63;5031612;28;20396;-77
2022/01/04 03:19:06;;;;;;;2.42;1.10;;;;;;;8.10;80.76;95163.41;5031174;28;20053;-77
2022/01/04 03:21:33;;;;;;;3.65;1.00;;;;;;;8.06;81.13;95162.47;5031089;28;20574;-77
2022/01/04 03:24:00;;;;;;;4.35;0.90;;;;;;;8.02;81.75;95160.75;5031172;28;20060;-77
2022/01/04 03:26:27;;;;;;;2.92;1.15;;;;;;;7.97;81.96;95148.16;5031333;28;20049;-77
2022/01/04 03:28:54;;;;;;;4.00;1.00;;;;;;;7.93;82.46;95138.31;5031304;28;20504;-80
2022/01/04 03:31:21;;;;;;;2.75;0.80;;;;;;;7.92;82.49;95134.81;5030674;28;20053;-80
2022/01/04 03:33:48;;;;;;;3.60;1.15;;;;;;;7.92;82.86;95126.69;5031469;28;20061;-77
2022/01/04 03:36:15;;;;;;;3.45;0.98;;;;;;;7.90;82.98;95120.81;5030923;28;20055;-77
2022/01/04 03:38:42;;;;;;;5.28;1.30;;;;;;;7.90;83.13;95123.53;5031351;28;20056;-77
2022/01/04 03:41:09;;;;;;;2.90;1.30;;;;;;;7.84;83.38;95127.56;5030485;28;20053;-78
2022/01/04 03:43:37;;;;;;;4.32;0.98;;;;;;;7.80;83.45;95104.94;5031775;28;20045;-77
2022/01/04 03:46:05;;;;;;;3.90;1.30;;;;;;;7.79;83.20;95097.94;5029621;28;20049;-78
2022/01/04 03:48:32;;;;;;;2.65;1.30;;;;;;;7.78;83.44;95093.66;5030893;28;20119;-78
2022/01/04 03:50:58;;;;;;;4.00;1.38;;;;;;;7.74;83.61;95095.44;5030368;28;20054;-77
2022/01/04 03:53:25;;;;;;;2.50;1.10;;;;;;;7.69;83.96;95080.16;5030285;28;20604;-77
2022/01/04 03:55:51;;;;;;;4.97;1.10;;;;;;;7.69;83.89;95079.38;5031042;28;20053;-78
2022/01/04 03:58:18;;;;;;;2.42;1.05;;;;;;;7.67;83.97;95073.47;5029983;28;20061;-78
2022/01/04 04:00:44;;;;;;;2.67;1.00;;;;;;;7.64;84.03;95061.38;5030058;28;20049;-77
2022/01/04 04:03:12;;;;;;;2.78;1.00;;;;;;;7.61;84.29;95053.13;5030021;28;20049;-77
2022/01/04 04:05:39;;;;;;;1.90;0.90;;;;;;;7.59;84.33;95046.13;5030758;28;20137;-79
2022/01/04 04:08:05;;;;;;;6.90;1.27;;;;;;;7.58;84.47;95041.84;5030063;28;20046;-79
2022/01/04 04:10:32;;;;;;;2.33;0.90;;;;;;;7.55;84.39;95034.34;5030002;28;20046;-77
2022/01/04 04:12:58;;;;;;;1.92;0.73;;;;;;;7.54;84.07;95030.06;5030792;28;20071;-78
2022/01/04 04:15:25;;;;;;;1.80;1.00;;;;;;;7.54;84.58;95015.72;5029969;28;20052;-78
2022/01/04 04:17:51;;;;;;;2.08;0.80;;;;;;;7.56;84.49;95016.97;5030534;28;20053;-77
2022/01/04 04:20:20;;;;;;;2.90;1.15;;;;;;;7.58;84.61;95006.63;5029611;28;20060;-77
2022/01/04 04:22:47;;;;;;;1.50;0.80;;;;;;;7.61;84.65;94998.94;5030357;28;20054;-77
2022/01/04 04:25:14;;;;;;;2.85;0.90;;;;;;;7.62;84.61;95000.50;5029747;28;20058;-77
2022/01/04 04:27:41;;;;;;;4.65;1.00;;;;;;;7.63;84.63;95007.53;5029936;28;20053;-78
2022/01/04 04:30:09;;;;;;;1.70;0.85;;;;;;;7.65;84.89;95003.38;5029452;28;20045;-79
2022/01/04 04:32:35;;;;;;;5.43;1.30;;;;;;;7.68;84.70;94999.22;5030177;28;20504;-77
2022/01/04 04:35:02;;;;;;;2.20;0.98;;;;;;;7.69;84.83;94995.38;5029680;28;20411;-75
2022/01/04 04:37:30;;;;;;;1.30;0.80;;;;;;;7.71;85.13;94993.91;5029852;28;20048;-77
2022/01/04 04:39:57;;;;;;;3.47;0.95;;;;;;;7.73;85.09;94999.00;5029671;28;20511;-77
2022/01/04 04:42:23;;;;;;;4.40;1.08;;;;;;;7.71;85.29;94993.13;5029753;28;20072;-77
2022/01/04 04:44:50;;;;;;;1.88;0.82;;;;;;;7.70;85.55;94996.94;5030167;28;20053;-78
2022/01/04 04:47:16;;;;;;;1.55;0.90;;;;;;;7.68;85.51;94982.97;5029262;28;20052;-77
2022/01/04 04:49:43;;;;;;;4.03;0.85;;;;;;;7.64;85.58;94973.91;5029513;28;20053;-77
2022/01/04 04:52:10;;;;;;;2.38;0.90;;;;;;;7.61;85.03;94971.84;5029350;28;20050;-79
2022/01/04 04:54:38;;;;;;;3.17;0.70;;;;;;;7.55;85.11;94969.34;5029817;28;20124;-78
2022/01/04 04:57:05;;;;;;;2.75;0.90;;;;;;;7.53;84.60;94971.59;5029449;28;20055;-77
2022/01/04 04:59:31;;;;;;;2.83;0.77;;;;;;;7.50;84.91;94961.41;5029272;28;20055;-77
2022/01/04 05:01:58;;;;;;;1.75;0.85;;;;;;;7.50;84.53;94966.84;5026679;28;20049;-77
2022/01/04 05:04:25;;;;;;;2.17;0.77;;;;;;;7.46;83.99;94965.91;5029155;28;20056;-78
2022/01/04 05:06:52;;;;;;;1.52;0.73;;;;;;;7.45;83.16;94963.53;5029232;28;20049;-77
2022/01/04 05:09:18;;;;;;;3.88;0.80;;;;;;;7.42;83.51;94970.44;5028759;28;20140;-79
2022/01/04 05:11:46;;;;;;;1.83;0.93;;;;;;;7.42;84.19;94965.00;5029557;28;20664;-77
2022/01/04 05:14:13;;;;;;;2.97;1.08;;;;;;;7.41;84.81;94960.69;5028715;28;20046;-78
2022/01/04 05:16:39;;;;;;;2.58;0.80;;;;;;;7.40;85.06;94956.41;5029264;28;20049;-76
2022/01/04 05:19:06;;;;;;;3.53;1.30;;;;;;;7.40;85.21;94959.09;5028769;28;20050;-76
2022/01/04 05:21:32;;;;;;;2.05;0.85;;;;;;;7.38;85.22;94953.25;5028626;28;20057;-77
2022/01/04 05:23:59;;;;;;;2.00;1.10;;;;;;;7.44;85.48;94954.63;5029158;28;20057;-77
2022/01/04 05:26:25;;;;;;;1.52;0.88;;;;;;;7.46;85.29;94955.06;5028905;28;20511;-79
2022/01/04 05:28:53;;;;;;;4.55;1.02;;;;;;;7.42;85.49;94954.19;5028740;28;20050;-77
2022/01/04 05:31:20;;;;;;;1.50;0.90;;;;;;;7.38;85.71;94953.25;5028271;28;20056;-77
2022/01/04 05:33:47;;;;;;;2.17;1.00;;;;;;;7.34;85.37;94946.91;5029117;28;20073;-76
2022/01/04 05:36:13;;;;;;;1.88;1.00;;;;;;;7.30;85.22;94940.56;5028313;28;20354;-78
2022/01/04 05:38:40;;;;;;;1.60;0.80;;;;;;;7.26;85.26;94939.66;5028840;28;20535;-79
2022/01/04 05:41:07;;;;;;;1.73;1.00;;;;;;;7.28;85.31;94942.81;5028191;28;20057;-78
2022/01/04 05:43:34;;;;;;;2.80;1.05;;;;;;;7.30;84.93;94935.94;5029313;28;20052;-78
2022/01/04 05:46:02;;;;;;;3.08;1.42;;;;;;;7.29;84.98;94937.06;5028660;28;20056;-77
2022/01/04 05:48:29;;;;;;;3.15;1.50;;;;;;;7.18;84.66;94926.97;5028030;28;20044;-78
2022/01/04 05:50:55;;;;;;;3.90;1.52;;;;;;;7.09;85.02;94927.03;5028127;28;20420;-78
2022/01/04 05:53:22;;;;;;;2.65;1.40;;;;;;;7.05;85.73;94932.31;5028142;28;20520;-77
2022/01/04 05:55:48;;;;;;;3.08;1.52;;;;;;;7.04;85.90;94933.44;5028349;28;20057;-78
2022/01/04 05:58:15;;;;;;;5.35;1.73;;;;;;;6.96;85.77;94918.06;5027879;28;20053;-77
2022/01/04 06:00:41;;;;;;;3.90;1.73;;;;;;;6.95;86.08;94919.19;5028002;28;20416;-77
2022/01/04 06:03:09;;;;;;;4.97;1.67;;;;;;;6.90;86.33;94918.59;5027859;28;20053;-77
2022/01/04 06:05:36;;;;;;;3.20;1.88;;;;;;;6.89;86.37;94920.50;5028529;28;20045;-76
2022/01/04 06:08:03;;;;;;;5.22;2.13;;;;;;;6.88;87.19;94921.59;5027703;28;20052;-79
2022/01/04 06:10:36;;;;;;;3.33;1.90;;;;;;;6.87;87.22;94925.44;5027845;28;20067;-78
2022/01/04 06:15:46;;;;;;;5.00;2.05;;;;;;;6.81;88.16;94929.47;5028450;28;19932;-78
2022/01/04 06:18:14;;;;;;;3.28;1.80;;;;;;;6.77;88.31;94928.53;5026983;28;20060;-77
2022/01/04 06:20:41;;;;;;;4.45;1.98;;;;;;;6.72;88.48;94923.31;5027999;28;20053;-78
2022/01/04 06:23:07;;;;;;;4.72;2.28;;;;;;;6.67;88.36;94912.69;5027888;28;20412;-78
2022/01/04 06:25:34;;;;;;;5.63;1.90;;;;;;;6.61;87.97;94903.97;5027877;28;20049;-78
2022/01/04 06:28:02;;;;;;;10.50;2.78;;;;;;;6.54;88.38;94909.91;5028226;28;20076;-77
2022/01/04 06:30:29;;;;;;;3.72;2.15;;;;;;;6.54;88.46;94909.09;5027687;28;20057;-78
2022/01/04 06:32:55;;;;;;;3.40;1.67;;;;;;;6.49;88.35;94901.97;5027670;28;20049;-78
2022/01/04 06:35:25;;;;;;;3.95;2.33;;;;;;;6.49;88.65;94903.88;5027410;28;20053;-78
2022/01/04 06:37:51;;;;;;;4.80;2.50;;;;;;;6.48;88.68;94894.19;5027762;28;20052;-78
2022/01/04 06:40:18;;;;;;;6.85;2.28;;;;;;;6.48;88.83;94892.28;5027066;28;20080;-79
2022/01/04 06:42:44;;;;;;;4.10;2.58;;;;;;;6.50;88.75;94903.56;5028041;28;20053;-77
2022/01/04 06:45:13;;;;;;;5.13;2.20;;;;;;;6.46;88.11;94888.31;5027764;28;20053;-77
2022/01/04 06:47:39;;;;;;;6.10;2.28;;;;;;;6.42;88.46;94880.06;5026036;28;20543;-77
2022/01/04 06:50:07;;;;;;;5.35;2.53;;;;;;;6.43;88.85;94881.66;5025994;28;20053;-77
2022/01/04 06:52:35;;;;;;;4.68;2.13;;;;;;;6.42;88.53;94874.66;5026666;28;20045;-77
2022/01/04 06:55:02;;;;;;;7.55;2.30;;;;;;;6.39;88.83;94877.22;5026690;28;20516;-78
2022/01/04 06:57:28;;;;;;;4.00;2.38;;;;;;;6.40;89.33;94876.09;5026421;28;20128;-75
2022/01/04 06:59:55;;;;;;;5.13;2.33;;;;;;;6.43;89.59;94881.66;5026272;28;20531;-77
2022/01/04 07:02:22;;;;;;;5.10;2.33;;;;;;;6.43;89.35;94876.25;5026770;28;20049;-78
2022/01/04 07:04:48;;;;;;;3.42;2.25;;;;;;;6.43;89.25;94876.25;5028044;28;20053;-77
2022/01/04 07:07:14;;;;;;;5.13;2.80;;;;;;;6.44;89.62;94867.00;5027406;28;20066;-78
2022/01/04 07:09:42;;;;;;;6.05;2.60;;;;;;;6.47;89.65;94865.56;5027693;28;20049;-78
2022/01/04 07:12:10;;;;;;;4.53;2.50;;;;;;;6.49;90.04;94853.31;5027602;28;20055;-78
2022/01/04 07:14:36;;;;;;;5.63;2.42;;;;;;;6.54;90.11;94855.81;5027782;28;20053;-78
2022/01/04 07:17:03;;;;;;;4.18;2.45;;;;;;;6.55;90.06;94848.50;5047350;28;20444;-79
2022/01/04 07:19:30;;;;;;;5.22;2.67;;;;;;;6.53;90.27;94842.63;5047514;28;20071;-77
2022/01/04 07:21:56;;;;;;;5.65;2.50;;;;;;;6.54;90.33;94839.59;5047369;28;20049;-78
2022/01/04 07:24:23;;;;;;;4.63;2.67;;;;;;;6.55;90.55;94834.97;5046970;28;20422;-78
2022/01/04 07:26:50;;;;;;;5.38;2.35;;;;;;;6.61;90.34;94839.06;5047137;28;20049;-78
2022/01/04 07:29:17;;;;;;;8.73;2.67;;;;;;;6.63;90.46;94838.72;5048520;28;20048;-79
2022/01/04 07:31:44;;;;;;;5.32;2.20;;;;;;;6.63;90.58;94838.72;5050921;28;20041;-77
2022/01/04 07:34:10;;;;;;;4.55;2.78;;;;;;;6.65;90.73;94836.50;5051043;28;20139;-77
2022/01/04 07:36:37;;;;;;;4.32;2.42;;;;;;;6.67;90.91;94837.72;5051027;28;20041;-79
2022/01/04 07:39:03;;;;;;;5.07;2.15;;;;;;;6.68;90.66;94833.13;5050552;28;20060;-76
2022/01/04 07:41:30;;;;;;;4.90;2.42;;;;;;;6.75;90.97;94822.56;5050959;28;20468;-78
2022/01/04 07:43:58;;;;;;;4.78;2.20;;;;;;;6.76;90.87;94813.31;5032144;28;20045;-76
2022/01/04 07:46:25;;;;;;;6.43;2.22;;;;;;;6.78;90.56;94805.66;5030949;28;20045;-74
2022/01/04 07:48:52;;;;;;;5.43;2.97;;;;;;;6.79;90.21;94796.44;5030812;28;20080;-73
2022/01/04 07:51:18;;;;;;;4.25;2.15;;;;;;;6.81;89.98;94799.59;5030342;28;20061;-73
2022/01/04 07:53:45;;;;;;;4.57;2.75;;;;;;;6.84;90.00;94785.41;5030902;28;20591;-73
2022/01/04 07:56:12;;;;;;;5.53;3.50;;;;;;;6.86;90.18;94782.38;5030579;28;20057;-73
2022/01/04 07:58:38;;;;;;;4.90;2.25;;;;;;;6.90;90.35;94789.50;5030774;28;20045;-73
2022/01/04 08:01:06;;;;;;;4.50;2.30;;;;;;;6.90;90.40;94780.59;5029994;28;20049;-72
2022/01/04 08:03:33;;;;;;;4.32;2.10;;;;;;;6.90;90.45;94789.50;5030678;28;20050;-74
2022/01/04 08:05:59;;;;;;;3.42;2.08;;;;;;;6.92;90.38;94786.44;5030604;28;20061;-74
2022/01/04 08:08:26;;;;;;;5.65;2.55;;;;;;;6.91;90.11;94788.38;5030088;28;20049;-73
2022/01/04 08:10:52;;;;;;;5.72;2.08;;;;;;;6.94;90.17;94785.00;5030204;28;20045;-73
2022/01/04 08:13:19;;;;;;;7.32;2.63;;;;;;;6.94;90.44;94779.59;5031064;28;20057;-73
2022/01/04 08:15:46;;;;;;;4.55;2.20;;;;;;;6.96;90.47;94771.94;5030497;28;20054;-73
2022/01/04 08:18:13;;;;;;;4.25;2.17;;;;;;;6.96;90.69;94765.72;5030262;28;20049;-73
2022/01/04 08:20:40;;;;;;;4.10;2.40;;;;;;;6.99;91.01;94762.34;5030035;28;20056;-73
2022/01/04 08:23:07;;;;;;;3.58;2.53;;;;;;;7.02;91.17;94746.22;5030160;28;20424;-73
2022/01/04 08:25:33;;;;;;;4.00;2.25;;;;;;;7.01;90.78;94749.28;5030182;28;20053;-73
2022/01/04 08:28:00;;;;;;;4.22;2.30;;;;;;;7.01;90.88;94743.88;5030420;28;20049;-73
2022/01/04 08:30:26;;;;;;;6.70;2.10;;;;;;;6.99;90.88;94736.06;5029544;28;20049;-73
2022/01/04 08:32:53;;;;;;;4.70;2.08;;;;;;;7.02;91.10;94724.59;5030328;28;20060;-73
2022/01/04 08:35:22;;;;;;;5.63;2.30;;;;;;;7.03;90.57;94725.38;5030034;28;20049;-73
2022/01/04 08:37:49;;;;;;;5.22;1.92;;;;;;;7.06;90.92;94720.09;5030493;28;20099;-73
2022/01/04 08:40:15;;;;;;;4.38;1.90;;;;;;;7.09;91.09;94717.81;5028879;28;20072;-73
2022/01/04 08:42:42;;;;;;;5.38;2.50;;;;;;;7.11;90.90;94715.59;5030352;28;20083;-73
2022/01/04 08:45:09;;;;;;;5.88;2.30;;;;;;;7.13;91.19;94707.91;5029475;28;20496;-73
2022/01/04 08:47:36;;;;;;;6.65;2.25;;;;;;;7.18;91.83;94705.00;5029648;28;20722;-73
2022/01/04 08:50:04;;;;;;;4.57;2.47;;;;;;;7.20;91.91;94691.91;5029255;28;20129;-73
2022/01/04 08:52:32;;;;;;;5.60;2.33;;;;;;;7.21;91.85;94693.50;5029846;28;20053;-73
2022/01/04 08:54:58;;;;;;;5.57;2.22;;;;;;;7.25;91.87;94688.97;5029885;28;20049;-73
2022/01/04 08:57:25;;;;;;;4.18;1.83;;;;;;;7.29;92.29;94679.06;5029476;28;20048;-73
2022/01/04 08:59:54;;;;;;;3.45;2.00;;;;;;;7.34;92.41;94681.53;5029498;28;20049;-73
2022/01/04 09:02:22;;;;;;;5.13;2.28;;;;;;;7.38;92.11;94676.25;5029124;28;20050;-73
2022/01/04 09:04:49;;;;;;;4.82;2.00;;;;;;;7.43;92.27;94668.69;5029800;28;20115;-73
2022/01/04 09:07:16;;;;;;;3.97;1.88;;;;;;;7.45;92.30;94665.63;5029269;28;20049;-73
2022/01/04 09:09:44;;;;;;;3.83;1.90;;;;;;;7.46;92.70;94654.44;5029642;28;20045;-72
2022/01/04 09:12:12;;;;;;;6.22;2.92;;;;;;;7.48;92.66;94649.50;5029452;28;20061;-73
2022/01/04 09:14:54;;;;;;;8.70;2.90;;;;;;;7.51;92.68;94640.69;5029479;28;20489;-73
2022/01/04 09:20:07;;;;;;;4.25;1.80;;;;;;;7.65;92.84;94642.25;5029042;28;20123;-75
2022/01/04 09:22:34;;;;;;;3.97;1.80;;;;;;;7.70;92.72;94640.09;5029091;28;20042;-73
2022/01/04 09:25:02;;;;;;;3.30;1.80;;;;;;;7.74;92.53;94640.22;5029284;28;20540;-72
2022/01/04 09:27:29;;;;;;;3.03;1.50;;;;;;;7.74;92.27;94641.00;5029004;28;20073;-73
2022/01/04 09:29:56;;;;;;;2.80;1.65;;;;;;;7.78;92.17;94633.00;5028929;28;20424;-73
2022/01/04 09:32:22;;;;;;;3.35;1.50;;;;;;;7.82;91.71;94644.72;5028411;28;20441;-74
2022/01/04 09:34:49;;;;;;;3.33;1.58;;;;;;;7.78;90.83;94651.97;5029516;28;20060;-73
2022/01/04 09:37:16;;;;;;;6.65;1.77;;;;;;;7.85;90.76;94647.53;5028690;28;20050;-73
2022/01/04 09:39:42;;;;;;;4.43;1.60;;;;;;;7.94;90.58;94636.56;5029002;28;20041;-73
2022/01/04 09:42:10;;;;;;;4.68;1.55;;;;;;;8.06;90.64;94627.59;5029006;28;20052;-73
2022/01/04 09:44:37;;;;;;;3.53;1.58;;;;;;;8.18;90.35;94627.56;5029031;28;20054;-73
2022/01/04 09:47:05;;;;;;;4.75;1.80;;;;;;;8.28;89.51;94629.00;5028863;28;20416;-73
2022/01/04 09:49:33;;;;;;;4.00;2.10;;;;;;;8.34;88.70;94624.91;5029168;28;20080;-73
2022/01/04 09:52:00;;;;;;;3.70;1.90;;;;;;;8.42;88.10;94624.00;5028434;28;20053;-74
2022/01/04 09:54:27;;;;;;;3.47;1.65;;;;;;;8.48;87.46;94611.75;5028315;28;20049;-74
2022/01/04 09:56:54;;;;;;;3.17;1.50;;;;;;;8.54;87.07;94615.78;5028723;28;20050;-73
2022/01/04 09:59:22;;;;;;;3.20;1.48;;;;;;;8.55;86.25;94603.81;5028118;28;20057;-73
2022/01/04 10:01:55;;;;;;;4.45;1.60;;;;;;;8.56;86.41;94605.41;5028497;28;20080;-73
2022/01/04 10:04:24;;;;;;;4.03;1.60;;;;;;;8.58;86.09;94603.13;5028168;28;20052;-73
2022/01/04 10:07:02;;;;;;;2.58;1.30;;;;;;;8.57;86.61;94587.97;5028954;28;20140;-73
2022/01/04 10:09:37;;;;;;;4.18;1.80;;;;;;;8.56;86.72;94582.88;5028175;28;20056;-73
2022/01/04 10:12:07;;;;;;;2.95;1.48;;;;;;;8.55;86.77;94581.31;5028727;28;20050;-73
2022/01/04 10:14:39;;;;;;;3.20;1.70;;;;;;;8.55;86.79;94571.25;5028465;28;20507;-73
2022/01/04 10:17:07;;;;;;;2.88;1.98;;;;;;;8.56;86.99;94567.41;5028091;28;20132;-73
2022/01/04 10:19:35;;;;;;;4.85;2.35;;;;;;;8.61;87.04;94571.78;5028198;28;20046;-73
2022/01/04 10:22:19;;;;;;;5.40;1.80;;;;;;;8.61;87.01;94560.91;5028043;28;20081;-73
2022/01/04 10:24:47;;;;;;;5.03;2.00;;;;;;;8.59;86.87;94555.84;5028541;28;20420;-74
2022/01/04 10:27:28;;;;;;;4.75;1.70;;;;;;;8.61;87.72;94558.22;5027625;28;20053;-73
2022/01/04 10:30:19;;;;;;;3.47;1.70;;;;;;;8.66;87.88;94543.59;5028372;28;20056;-74
2022/01/04 10:32:54;;;;;;;3.35;1.77;;;;;;;8.70;88.07;94539.84;5028215;28;20077;-73
2022/01/04 10:35:23;;;;;;;3.00;1.90;;;;;;;8.75;88.13;94536.09;5027625;28;20757;-73
2022/01/04 10:37:50;;;;;;;3.38;1.90;;;;;;;8.77;88.17;94533.78;5028532;28;20647;-74
2022/01/04 10:40:17;;;;;;;4.05;1.50;;;;;;;8.83;88.27;94527.78;5027757;28;20057;-73
2022/01/04 10:42:43;;;;;;;4.20;1.90;;;;;;;8.88;88.24;94535.66;5037285;28;20594;-72
2022/01/04 10:45:30;;;;;;;4.78;1.63;;;;;;;8.95;88.48;94543.16;5047761;28;20041;-73
2022/01/04 10:48:09;;;;;;;2.92;1.60;;;;;;;9.00;88.41;94532.03;5048655;28;20060;-73
2022/01/04 10:50:37;;;;;;;3.15;1.50;;;;;;;9.05;88.83;94518.19;5047724;28;20400;-73
2022/01/04 10:53:04;;;;;;;1.95;1.10;;;;;;;9.15;88.37;94517.66;5047872;28;20504;-72
2022/01/04 10:55:33;;;;;;;2.85;1.23;;;;;;;9.27;87.91;94508.59;5048074;28;20510;-73
2022/01/04 10:58:00;;;;;;;2.03;0.90;;;;;;;9.39;86.80;94505.75;5047887;28;20087;-73
2022/01/04 11:00:30;;;;;;;5.95;1.65;;;;;;;9.58;85.16;94515.09;5046595;28;20420;-72
2022/01/04 11:02:58;;;;;;;3.70;0.95;;;;;;;9.67;84.96;94504.81;5047977;28;20053;-73
2022/01/04 11:05:25;;;;;;;1.60;1.02;;;;;;;9.80;83.00;94497.28;5050714;28;20095;-73
2022/01/04 11:08:02;;;;;;;2.10;0.95;;;;;;;9.89;82.98;94489.72;5052081;28;20062;-73
2022/01/04 11:10:32;;;;;;;2.15;1.15;;;;;;;9.98;82.79;94482.13;5051048;28;20037;-73
2022/01/04 11:13:00;;;;;;;2.08;0.90;;;;;;;10.09;82.05;94477.66;5040931;28;20050;-74
2022/01/04 11:15:29;;;;;;;2.55;0.90;;;;;;;10.15;81.68;94473.50;5031483;28;20045;-73
2022/01/04 11:17:57;;;;;;;2.13;0.80;;;;;;;10.26;81.07;94475.66;5031724;28;20092;-73
2022/01/04 11:20:24;;;;;;;1.20;0.90;;;;;;;10.34;81.32;94480.09;5031120;28;20045;-73
2022/01/04 11:22:51;;;;;;;2.53;1.00;;;;;;;10.40;80.90;94470.47;5031264;28;20045;-73
2022/01/04 11:25:21;;;;;;;1.38;0.95;;;;;;;10.45;81.10;94462.03;5030993;28;20056;-74
2022/01/04 11:27:49;;;;;;;3.85;1.75;;;;;;;10.51;81.34;94452.41;5031475;28;20500;-73
2022/01/04 11:30:21;;;;;;;2.38;0.95;;;;;;;10.57;80.77;94450.94;5030534;28;20135;-73
2022/01/04 11:32:55;;;;;;;1.90;1.00;;;;;;;10.65;80.85;94458.09;5031865;28;20053;-73
2022/01/04 11:35:24;;;;;;;3.35;1.17;;;;;;;10.74;80.66;94446.13;5031232;28;20052;-73
2022/01/04 11:37:55;;;;;;;2.97;1.45;;;;;;;10.83;82.13;94425.69;5031414;28;20812;-73
2022/01/04 11:40:24;;;;;;;3.25;1.67;;;;;;;10.87;82.58;94428.47;5030943;28;20041;-75
2022/01/04 11:42:52;;;;;;;3.38;1.80;;;;;;;10.91;82.97;94427.38;5031975;28;20058;-73
2022/01/04 11:45:38;;;;;;;3.35;1.85;;;;;;;10.96;83.33;94409.91;5031029;28;20053;-73
2022/01/04 11:48:25;;;;;;;3.03;1.70;;;;;;;10.96;83.00;94393.56;5030836;28;20076;-73
2022/01/04 11:50:51;;;;;;;2.70;1.60;;;;;;;10.97;82.26;94389.72;5030907;28;20512;-73
2022/01/04 11:53:18;;;;;;;3.50;1.58;;;;;;;11.04;80.30;94389.81;5031289;28;20049;-73